createdAt,value
2018-06-21T00:00:39.109Z,22.68
2018-06-21T00:03:09.476Z,22.63
2018-06-21T00:05:39.213Z,22.61
2018-06-21T00:08:08.990Z,22.57
2018-06-21T00:10:38.785Z,22.54
2018-06-21T00:13:08.587Z,22.52
2018-06-21T00:15:38.378Z,22.49
2018-06-21T00:18:08.142Z,22.54
2018-06-21T00:20:37.902Z,22.47
2018-06-21T00:23:07.953Z,22.37
2018-06-21T00:25:37.988Z,22.34
2018-06-21T00:28:07.816Z,22.33
2018-06-21T00:30:37.560Z,22.30
2018-06-21T00:33:07.425Z,22.23
2018-06-21T00:35:37.166Z,22.34
2018-06-21T00:38:06.939Z,22.24
2018-06-21T00:40:36.710Z,22.18
2018-06-21T00:43:06.454Z,22.13
2018-06-21T00:45:36.226Z,22.05
2018-06-21T00:48:06.003Z,22.03
2018-06-21T00:50:35.811Z,22.02
2018-06-21T00:53:05.597Z,22.01
2018-06-21T00:55:45.962Z,21.94
2018-06-21T00:58:15.720Z,21.95
2018-06-21T01:00:45.501Z,21.95
2018-06-21T01:03:15.275Z,21.88
2018-06-21T01:05:45.030Z,21.84
2018-06-21T01:08:14.797Z,21.81
2018-06-21T01:10:44.559Z,21.79
2018-06-21T01:13:14.334Z,21.74
2018-06-21T01:15:44.417Z,21.72
2018-06-21T01:18:14.178Z,21.70
2018-06-21T01:20:43.914Z,21.68
2018-06-21T01:23:13.720Z,21.56
2018-06-21T01:25:43.497Z,21.59
2018-06-21T01:28:13.290Z,21.54
2018-06-21T01:30:43.068Z,21.55
2018-06-21T01:33:12.989Z,21.56
2018-06-21T01:35:42.739Z,21.55
2018-06-21T01:38:12.593Z,21.55
2018-06-21T01:40:42.377Z,21.54
2018-06-21T01:43:12.153Z,21.50
2018-06-21T01:45:41.957Z,21.50
2018-06-21T01:48:11.750Z,21.49
2018-06-21T01:50:41.511Z,21.47
2018-06-21T01:53:11.597Z,21.44
2018-06-21T01:55:41.374Z,21.42
2018-06-21T01:58:11.216Z,21.39
2018-06-21T02:00:40.984Z,21.37
2018-06-21T02:03:10.746Z,21.34
2018-06-21T02:05:40.545Z,21.32
2018-06-21T02:08:10.342Z,21.30
2018-06-21T02:10:40.276Z,21.26
2018-06-21T02:13:10.035Z,21.22
2018-06-21T02:15:39.831Z,21.16
2018-06-21T02:18:09.561Z,21.15
2018-06-21T02:20:39.333Z,21.13
2018-06-21T02:23:09.113Z,21.08
2018-06-21T02:25:38.862Z,21.05
2018-06-21T02:28:08.630Z,21.01
2018-06-21T02:30:38.369Z,20.97
2018-06-21T02:33:08.158Z,20.94
2018-06-21T02:35:37.909Z,20.89
2018-06-21T02:38:07.656Z,20.73
2018-06-21T02:40:37.475Z,20.79
2018-06-21T02:43:07.969Z,20.62
2018-06-21T02:45:37.813Z,20.56
2018-06-21T02:48:07.643Z,20.57
2018-06-21T02:50:37.442Z,20.52
2018-06-21T02:53:07.540Z,20.50
2018-06-21T02:55:37.405Z,20.43
2018-06-21T02:58:07.157Z,20.40
2018-06-21T03:00:36.926Z,20.36
2018-06-21T03:03:06.714Z,20.32
2018-06-21T03:05:36.473Z,20.21
2018-06-21T03:08:06.286Z,20.10
2018-06-21T03:10:36.042Z,20.09
2018-06-21T03:13:05.786Z,20.09
2018-06-21T03:15:35.575Z,20.11
2018-06-21T03:18:05.333Z,20.03
2018-06-21T03:20:35.213Z,19.96
2018-06-21T03:23:04.977Z,19.92
2018-06-21T03:25:34.718Z,19.98
2018-06-21T03:28:04.521Z,19.94
2018-06-21T03:30:34.273Z,19.97
2018-06-21T03:33:04.037Z,19.93
2018-06-21T03:35:33.798Z,19.86
2018-06-21T03:38:03.549Z,19.88
2018-06-21T03:40:33.336Z,19.81
2018-06-21T03:43:03.085Z,19.81
2018-06-21T03:45:32.853Z,19.85
2018-06-21T03:48:02.604Z,19.83
2018-06-21T03:50:32.391Z,19.81
2018-06-21T03:53:02.126Z,19.76
2018-06-21T03:55:31.952Z,19.81
2018-06-21T03:58:01.743Z,19.85
2018-06-21T04:00:31.533Z,19.71
2018-06-21T04:03:01.286Z,19.82
2018-06-21T04:05:31.089Z,19.88
2018-06-21T04:08:00.868Z,19.83
2018-06-21T04:10:30.605Z,19.90
2018-06-21T04:13:00.482Z,19.95
2018-06-21T04:15:30.227Z,20.00
2018-06-21T04:18:00.002Z,20.06
2018-06-21T04:20:29.798Z,20.15
2018-06-21T04:22:59.548Z,20.13
2018-06-21T04:25:29.313Z,20.20
2018-06-21T04:27:59.099Z,20.27
2018-06-21T04:30:28.916Z,20.39
2018-06-21T04:32:58.648Z,20.44
2018-06-21T04:35:28.422Z,20.54
2018-06-21T04:37:58.239Z,20.55
2018-06-21T04:40:28.207Z,20.59
2018-06-21T04:42:57.957Z,20.75
2018-06-21T04:45:27.695Z,20.85
2018-06-21T04:47:57.534Z,20.85
2018-06-21T04:50:27.321Z,20.88
2018-06-21T04:52:57.098Z,20.89
2018-06-21T04:55:26.885Z,20.94
2018-06-21T04:57:56.634Z,21.01
2018-06-21T05:00:26.442Z,21.11
2018-06-21T05:02:56.180Z,21.12
2018-06-21T05:05:25.935Z,21.12
2018-06-21T05:07:55.738Z,21.23
2018-06-21T05:10:25.529Z,21.34
2018-06-21T05:12:55.318Z,21.45
2018-06-21T05:15:25.063Z,21.49
2018-06-21T05:17:54.820Z,21.59
2018-06-21T05:20:24.612Z,21.68
2018-06-21T05:22:54.355Z,21.71
2018-06-21T05:25:24.158Z,21.81
2018-06-21T05:27:53.897Z,21.82
2018-06-21T05:30:23.673Z,21.93
2018-06-21T05:32:53.411Z,22.00
2018-06-21T05:35:23.190Z,22.10
2018-06-21T05:37:52.928Z,22.18
2018-06-21T05:40:31.335Z,22.29
2018-06-21T05:43:01.905Z,22.46
2018-06-21T05:45:31.992Z,22.52
2018-06-21T05:48:03.011Z,22.62
2018-06-21T05:50:34.047Z,22.80
2018-06-21T05:53:03.969Z,22.97
2018-06-21T05:55:34.675Z,23.17
2018-06-21T05:58:04.470Z,23.36
2018-06-21T06:00:34.313Z,23.44
2018-06-21T06:03:04.127Z,23.59
2018-06-21T06:05:33.985Z,23.72
2018-06-21T06:08:03.897Z,23.83
2018-06-21T06:10:33.704Z,23.92
2018-06-21T06:13:03.552Z,24.05
2018-06-21T06:15:33.361Z,24.18
2018-06-21T06:18:03.185Z,24.25
2018-06-21T06:20:32.958Z,24.30
2018-06-21T06:23:02.740Z,24.37
2018-06-21T06:25:32.527Z,24.50
2018-06-21T06:28:02.333Z,24.59
2018-06-21T06:30:32.153Z,24.65
2018-06-21T06:33:02.030Z,24.74
2018-06-21T06:35:32.326Z,24.82
2018-06-21T06:38:02.400Z,24.90
2018-06-21T06:40:32.370Z,24.99
2018-06-21T06:43:02.359Z,25.11
2018-06-21T06:45:32.325Z,25.21
2018-06-21T06:48:02.530Z,25.35
2018-06-21T06:50:32.527Z,25.46
2018-06-21T06:53:02.381Z,25.61
2018-06-21T06:55:32.274Z,25.71
2018-06-21T06:58:02.234Z,25.84
2018-06-21T07:00:32.054Z,25.95
2018-06-21T07:03:01.916Z,26.00
2018-06-21T07:05:31.746Z,26.11
2018-06-21T07:08:01.566Z,26.23
2018-06-21T07:10:31.377Z,26.39
2018-06-21T07:13:01.221Z,26.48
2018-06-21T07:15:30.989Z,26.59
2018-06-21T07:18:00.712Z,26.72
2018-06-21T07:20:30.696Z,26.79
2018-06-21T07:23:00.688Z,26.97
2018-06-21T07:25:30.642Z,27.06
2018-06-21T07:28:00.755Z,27.21
2018-06-21T07:30:30.601Z,27.34
2018-06-21T07:33:00.801Z,27.42
2018-06-21T07:35:30.648Z,27.54
2018-06-21T07:38:00.833Z,27.69
2018-06-21T07:40:30.943Z,27.80
2018-06-21T07:43:00.738Z,27.95
2018-06-21T07:45:30.561Z,28.10
2018-06-21T07:48:00.809Z,28.20
2018-06-21T07:50:30.692Z,28.30
2018-06-21T07:53:00.559Z,28.40
2018-06-21T07:55:30.379Z,28.42
2018-06-21T07:58:00.296Z,28.50
2018-06-21T08:00:30.127Z,28.62
2018-06-21T08:03:00.059Z,28.75
2018-06-21T08:05:29.901Z,28.89
2018-06-21T08:07:59.860Z,28.99
2018-06-21T08:10:29.715Z,29.12
2018-06-21T08:13:00.780Z,29.12
2018-06-21T08:15:31.189Z,29.23
2018-06-21T08:18:01.130Z,29.35
2018-06-21T08:20:31.010Z,29.49
2018-06-21T08:23:00.846Z,29.55
2018-06-21T08:25:30.634Z,29.62
2018-06-21T08:28:00.550Z,29.62
2018-06-21T08:30:30.365Z,29.61
2018-06-21T08:33:00.229Z,29.71
2018-06-21T08:35:30.078Z,29.78
2018-06-21T08:37:59.964Z,29.78
2018-06-21T08:40:29.833Z,29.58
2018-06-21T08:42:59.709Z,29.60
2018-06-21T08:45:29.558Z,29.81
2018-06-21T08:47:59.424Z,29.98
2018-06-21T08:50:29.290Z,30.02
2018-06-21T08:52:59.177Z,30.15
2018-06-21T08:55:29.050Z,30.00
2018-06-21T08:57:58.869Z,30.10
2018-06-21T09:00:29.189Z,30.30
2018-06-21T09:02:59.021Z,30.37
2018-06-21T09:05:28.858Z,30.30
2018-06-21T09:07:58.742Z,30.32
2018-06-21T09:10:28.581Z,30.12
2018-06-21T09:12:58.429Z,30.11
2018-06-21T09:15:28.340Z,30.17
2018-06-21T09:17:58.394Z,30.35
2018-06-21T09:20:28.210Z,30.28
2018-06-21T09:22:58.501Z,30.23
2018-06-21T09:25:28.302Z,30.18
2018-06-21T09:27:58.418Z,30.44
2018-06-21T09:30:28.393Z,30.47
2018-06-21T09:32:58.259Z,30.45
2018-06-21T09:35:28.052Z,30.72
2018-06-21T09:38:02.801Z,30.68
2018-06-21T09:40:37.602Z,30.66
2018-06-21T09:43:12.471Z,30.74
2018-06-21T09:46:51.225Z,30.96
2018-06-21T09:49:21.145Z,31.27
2018-06-21T09:51:50.940Z,31.39
2018-06-21T09:54:20.778Z,31.43
2018-06-21T09:56:50.672Z,31.51
2018-06-21T09:59:20.514Z,31.62
2018-06-21T10:01:50.392Z,31.67
2018-06-21T10:04:20.368Z,31.86
2018-06-21T10:06:50.236Z,31.81
2018-06-21T10:09:20.120Z,31.89
2018-06-21T10:11:50.008Z,32.06
2018-06-21T10:14:19.893Z,32.08
2018-06-21T10:16:49.770Z,32.23
2018-06-21T10:19:19.658Z,32.26
2018-06-21T10:21:49.634Z,32.20
2018-06-21T10:24:19.569Z,32.17
2018-06-21T10:26:49.417Z,32.27
2018-06-21T10:29:19.347Z,32.32
2018-06-21T10:31:49.632Z,32.48
2018-06-21T10:34:19.581Z,32.52
2018-06-21T10:36:49.420Z,32.74
2018-06-21T10:39:19.296Z,32.83
2018-06-21T10:41:49.163Z,32.84
2018-06-21T10:44:18.987Z,32.95
2018-06-21T10:46:48.880Z,32.90
2018-06-21T10:49:18.736Z,33.17
2018-06-21T10:51:48.686Z,33.29
2018-06-21T10:54:18.534Z,33.32
2018-06-21T10:56:48.637Z,33.44
2018-06-21T10:59:18.428Z,33.38
2018-06-21T11:01:48.358Z,33.46
2018-06-21T11:04:18.169Z,33.49
2018-06-21T11:06:48.190Z,33.47
2018-06-21T11:09:18.010Z,33.50
2018-06-21T11:11:47.808Z,33.63
2018-06-21T11:14:17.661Z,33.77
2018-06-21T11:16:47.628Z,33.82
2018-06-21T11:19:17.855Z,33.77
2018-06-21T11:21:47.690Z,33.78
2018-06-21T11:24:17.581Z,33.99
2018-06-21T11:26:47.449Z,34.04
2018-06-21T11:29:17.356Z,34.22
2018-06-21T11:31:47.224Z,34.27
2018-06-21T11:34:17.013Z,34.13
2018-06-21T11:36:47.042Z,33.93
2018-06-21T11:39:16.933Z,33.54
2018-06-21T11:41:46.834Z,33.30
2018-06-21T11:44:16.673Z,33.30
2018-06-21T11:46:46.623Z,33.10
2018-06-21T11:49:16.656Z,33.02
2018-06-21T11:51:46.566Z,33.02
2018-06-21T11:54:17.289Z,33.17
2018-06-21T11:56:47.156Z,33.33
2018-06-21T11:59:17.021Z,33.34
2018-06-21T12:01:46.957Z,33.49
2018-06-21T12:04:17.094Z,33.24
2018-06-21T12:06:46.916Z,33.31
2018-06-21T12:09:16.800Z,33.50
2018-06-21T12:11:46.634Z,33.82
2018-06-21T12:14:16.857Z,33.85
2018-06-21T12:16:46.686Z,33.91
2018-06-21T12:19:16.559Z,33.91
2018-06-21T12:21:46.380Z,34.02
2018-06-21T12:24:16.233Z,33.98
2018-06-21T12:26:46.118Z,33.73
2018-06-21T12:29:15.990Z,33.95
2018-06-21T12:31:45.956Z,33.98
2018-06-21T12:34:15.820Z,34.23
2018-06-21T12:36:45.767Z,34.15
2018-06-21T12:39:15.606Z,34.26
2018-06-21T12:41:45.489Z,33.93
2018-06-21T12:44:15.362Z,33.86
2018-06-21T12:46:45.242Z,33.77
2018-06-21T12:49:15.157Z,34.01
2018-06-21T12:51:45.482Z,34.04
2018-06-21T12:54:15.308Z,34.10
2018-06-21T12:56:45.124Z,34.28
2018-06-21T12:59:15.564Z,34.49
2018-06-21T13:01:45.412Z,34.63
2018-06-21T13:04:15.295Z,34.69
2018-06-21T13:06:45.134Z,34.81
2018-06-21T13:09:25.529Z,34.58
2018-06-21T13:12:35.193Z,34.39
2018-06-21T13:15:05.739Z,34.16
2018-06-21T13:17:35.594Z,34.11
2018-06-21T13:20:06.313Z,34.19
2018-06-21T13:22:36.155Z,34.30
2018-06-21T13:25:06.294Z,34.37
2018-06-21T13:27:36.138Z,34.36
2018-06-21T13:30:07.790Z,34.41
2018-06-21T13:32:37.635Z,34.42
2018-06-21T13:35:07.868Z,34.53
2018-06-21T13:37:37.817Z,34.76
2018-06-21T13:40:07.873Z,34.84
2018-06-21T13:42:37.777Z,35.00
2018-06-21T13:45:08.176Z,34.96
2018-06-21T13:47:38.041Z,34.85
2018-06-21T13:50:07.917Z,34.64
2018-06-21T13:52:38.138Z,34.44
2018-06-21T13:55:08.020Z,34.23
2018-06-21T13:57:37.998Z,34.07
2018-06-21T14:00:08.247Z,33.60
2018-06-21T14:02:38.150Z,33.67
2018-06-21T14:05:08.013Z,33.14
2018-06-21T14:07:37.981Z,32.51
2018-06-21T14:24:50.436Z,26.72
2018-06-21T14:27:20.329Z,26.52
2018-06-21T14:29:50.226Z,26.04
2018-06-21T14:32:20.534Z,26.02
2018-06-21T14:34:50.387Z,25.81
2018-06-21T14:37:20.312Z,25.86
2018-06-21T14:39:51.004Z,26.00
2018-06-21T14:42:21.293Z,26.31
2018-06-21T14:44:51.862Z,26.43
2018-06-21T14:47:23.686Z,26.59
2018-06-21T14:49:53.650Z,26.66
2018-06-21T14:52:28.344Z,26.81
2018-06-21T14:54:58.292Z,26.94
2018-06-21T14:57:28.504Z,27.00
2018-06-21T14:59:59.506Z,27.02
2018-06-21T15:02:29.471Z,27.05
2018-06-21T15:04:59.783Z,27.07
2018-06-21T15:07:30.368Z,27.03
2018-06-21T15:10:00.326Z,27.00
2018-06-21T15:12:30.448Z,26.81
2018-06-21T15:15:00.601Z,26.52
2018-06-21T15:17:30.648Z,26.31
2018-06-21T15:20:00.487Z,25.97
2018-06-21T15:22:30.431Z,25.62
2018-06-21T15:25:01.525Z,25.46
2018-06-21T15:27:31.677Z,25.09
2018-06-21T15:30:01.549Z,24.75
2018-06-21T15:32:31.456Z,24.57
2018-06-21T15:35:01.406Z,24.30
2018-06-21T15:37:31.282Z,24.23
2018-06-21T15:40:01.342Z,24.12
2018-06-21T15:42:31.728Z,23.92
2018-06-21T15:45:01.543Z,23.88
2018-06-21T15:47:31.454Z,23.79
2018-06-21T15:50:03.256Z,23.05
2018-06-21T15:52:33.304Z,21.97
2018-06-21T15:55:03.232Z,21.76
2018-06-21T15:57:33.405Z,21.31
2018-06-21T16:00:03.407Z,21.35
2018-06-21T16:02:33.450Z,21.67
2018-06-21T16:05:03.512Z,21.79
2018-06-21T16:07:33.577Z,21.93
2018-06-21T16:10:03.523Z,21.85
2018-06-21T16:12:33.661Z,21.91
2018-06-21T16:15:04.226Z,22.01
2018-06-21T16:17:34.170Z,21.90
2018-06-21T16:20:04.461Z,21.97
2018-06-21T16:22:34.390Z,21.90
2018-06-21T16:25:04.607Z,21.96
2018-06-21T16:27:34.434Z,21.99
2018-06-21T16:30:04.792Z,21.63
2018-06-21T16:32:34.622Z,21.54
2018-06-21T16:35:04.641Z,21.40
2018-06-21T16:37:34.755Z,21.34
2018-06-21T16:40:04.750Z,21.31
2018-06-21T16:42:34.659Z,21.01
2018-06-21T16:45:04.722Z,21.05
2018-06-21T16:47:34.553Z,20.79
2018-06-21T16:50:04.804Z,20.64
2018-06-21T16:52:42.315Z,20.64
2018-06-21T16:55:12.456Z,20.57
2018-06-21T16:57:42.593Z,20.42
2018-06-21T17:00:12.341Z,20.45
2018-06-21T17:02:42.405Z,20.29
2018-06-21T17:05:12.322Z,20.25
2018-06-21T17:07:42.552Z,20.26
2018-06-21T17:10:12.394Z,20.27
2018-06-21T17:12:42.253Z,20.15
2018-06-21T17:15:12.049Z,19.97
2018-06-21T17:17:42.231Z,20.03
2018-06-21T17:20:12.154Z,19.93
2018-06-21T17:22:42.037Z,19.81
2018-06-21T17:25:14.170Z,19.82
2018-06-21T17:27:44.115Z,19.67
2018-06-21T17:30:14.177Z,19.66
2018-06-21T17:32:44.547Z,19.55
2018-06-21T17:35:14.792Z,19.68
2018-06-21T17:37:44.903Z,19.54
2018-06-21T17:40:14.717Z,19.36
2018-06-21T17:42:44.943Z,19.44
2018-06-21T17:45:14.772Z,19.38
2018-06-21T17:47:47.523Z,19.37
2018-06-21T17:50:18.077Z,19.29
2018-06-21T17:52:48.440Z,19.23
2018-06-21T17:55:18.327Z,19.27
2018-06-21T17:57:53.604Z,19.08
2018-06-21T18:00:24.723Z,19.10
2018-06-21T18:02:56.753Z,19.02
2018-06-21T18:05:31.137Z,18.97
2018-06-21T18:08:01.145Z,18.84
2018-06-21T18:10:31.237Z,18.80
2018-06-21T18:13:01.257Z,18.75
2018-06-21T18:15:31.127Z,18.67
2018-06-21T18:18:01.575Z,18.58
2018-06-21T18:20:31.466Z,18.54
2018-06-21T18:23:01.469Z,18.45
2018-06-21T18:25:32.089Z,18.46
2018-06-21T18:28:03.393Z,18.52
2018-06-21T18:30:33.494Z,18.45
2018-06-21T18:33:04.786Z,18.37
2018-06-21T18:35:34.910Z,18.56
2018-06-21T18:38:09.895Z,18.28
2018-06-21T18:40:39.997Z,18.37
2018-06-21T18:43:10.141Z,18.33
2018-06-21T18:45:40.109Z,18.47
2018-06-21T18:48:10.100Z,18.98
2018-06-21T18:50:40.304Z,19.32
2018-06-21T18:53:10.466Z,19.10
2018-06-21T18:55:40.889Z,19.14
2018-06-21T18:58:10.753Z,19.21
2018-06-21T19:00:56.987Z,19.35
2018-06-21T19:03:27.301Z,19.38
2018-06-21T19:05:57.113Z,18.74
2018-06-21T19:08:31.741Z,18.68
2018-06-21T19:11:06.434Z,18.80
2018-06-21T19:13:40.207Z,18.96
2018-06-21T19:16:10.149Z,18.82
2018-06-21T19:18:40.241Z,18.79
2018-06-21T19:21:10.382Z,18.98
2018-06-21T19:23:40.166Z,19.19
2018-06-21T19:26:10.102Z,19.17
2018-06-21T19:28:40.173Z,18.90
2018-06-21T19:31:10.375Z,18.66
2018-06-21T19:33:41.940Z,18.39
2018-06-21T19:36:11.837Z,18.00
2018-06-21T19:38:41.598Z,17.74
2018-06-21T19:41:11.575Z,17.61
2018-06-21T19:43:41.383Z,17.66
2018-06-21T19:46:11.522Z,17.72
2018-06-21T19:48:41.518Z,17.85
2018-06-21T19:51:11.395Z,18.03
2018-06-21T19:53:41.289Z,17.97
2018-06-21T19:56:11.129Z,18.18
2018-06-21T19:58:47.882Z,18.28
2018-06-21T20:01:17.825Z,18.14
2018-06-21T20:03:47.825Z,17.94
2018-06-21T20:06:17.678Z,17.83
2018-06-21T20:08:47.551Z,18.01
2018-06-21T20:11:22.172Z,17.58
2018-06-21T20:13:53.145Z,17.70
2018-06-21T20:16:23.215Z,17.73
2018-06-21T20:18:53.225Z,17.55
2018-06-21T20:21:23.178Z,17.56
2018-06-21T20:23:53.385Z,17.63
2018-06-21T20:26:23.213Z,17.86
2018-06-21T20:28:53.259Z,17.96
2018-06-21T20:31:23.566Z,18.00
2018-06-21T20:33:53.438Z,17.67
2018-06-21T20:36:26.418Z,17.71
2018-06-21T20:38:56.235Z,17.59
2018-06-21T20:41:26.264Z,17.65
2018-06-21T20:43:56.353Z,17.66
2018-06-21T20:46:26.417Z,17.66
2018-06-21T20:48:56.223Z,17.66
2018-06-21T20:51:26.621Z,17.59
2018-06-21T20:53:56.749Z,17.18
2018-06-21T20:56:26.525Z,17.09
2018-06-21T20:58:56.919Z,16.90
2018-06-21T21:01:26.997Z,16.93
2018-06-21T21:03:57.122Z,17.04
2018-06-21T21:06:26.901Z,17.02
2018-06-21T21:08:56.763Z,17.14
2018-06-21T21:11:26.519Z,17.18
2018-06-21T21:13:56.310Z,17.16
2018-06-21T21:16:26.117Z,17.08
2018-06-21T21:18:55.921Z,17.10
2018-06-21T21:21:25.707Z,17.14
2018-06-21T21:23:55.514Z,17.09
2018-06-21T21:26:26.033Z,17.10
2018-06-21T21:28:56.743Z,17.16
2018-06-21T21:31:29.264Z,16.92
2018-06-21T21:33:59.241Z,16.75
2018-06-21T21:36:29.996Z,16.57
2018-06-21T21:39:00.717Z,16.68
2018-06-21T21:41:32.102Z,16.67
2018-06-21T21:44:02.850Z,16.74
2018-06-21T21:46:35.893Z,16.67
2018-06-21T21:49:05.704Z,16.60
2018-06-21T21:51:36.184Z,16.57
2018-06-21T21:54:06.914Z,16.59
2018-06-21T21:56:37.778Z,16.42
2018-06-21T21:59:09.094Z,16.26
2018-06-21T22:01:39.917Z,16.42
2018-06-21T22:04:10.780Z,16.46
2018-06-21T22:06:42.160Z,16.48
2018-06-21T22:09:12.942Z,16.53
2018-06-21T22:11:43.862Z,16.44
2018-06-21T22:14:15.094Z,16.56
2018-06-21T22:16:46.234Z,16.61
2018-06-21T22:19:16.943Z,16.39
2018-06-21T22:21:48.295Z,16.35
2018-06-21T22:24:19.015Z,16.38
2018-06-21T22:26:49.777Z,16.35
2018-06-21T22:29:21.121Z,16.43
2018-06-21T22:31:52.658Z,16.59
2018-06-21T22:34:29.730Z,16.53
2018-06-21T22:36:59.610Z,16.53
2018-06-21T22:39:29.466Z,16.53
2018-06-21T22:44:42.926Z,16.44
2018-06-21T22:47:12.840Z,16.48
2018-06-21T22:49:43.202Z,16.52
2018-06-21T22:52:13.042Z,16.39
2018-06-21T22:54:43.248Z,16.45
2018-06-21T22:57:13.126Z,16.38
2018-06-21T22:59:43.016Z,16.40
2018-06-21T23:02:12.856Z,16.44
2018-06-21T23:04:42.827Z,16.53
2018-06-21T23:07:12.719Z,16.56
2018-06-21T23:09:42.570Z,16.55
2018-06-21T23:12:12.598Z,16.46
2018-06-21T23:14:42.566Z,16.48
2018-06-21T23:17:12.911Z,16.43
2018-06-21T23:19:42.843Z,16.48
2018-06-21T23:22:12.850Z,16.50
2018-06-21T23:24:43.228Z,16.53
2018-06-21T23:27:14.126Z,16.43
2018-06-21T23:29:45.012Z,16.30
2018-06-21T23:32:16.022Z,16.33
2018-06-21T23:34:46.818Z,16.27
2018-06-21T23:37:18.258Z,16.23
2018-06-21T23:39:49.046Z,16.21
2018-06-21T23:42:19.920Z,16.28
2018-06-21T23:44:51.199Z,16.30
2018-06-21T23:47:22.066Z,16.32
2018-06-21T23:49:52.845Z,16.28
2018-06-21T23:52:24.164Z,16.14
2018-06-21T23:54:55.026Z,16.19
2018-06-21T23:57:26.072Z,15.96
2018-06-21T23:59:56.890Z,16.02
